sensor_id;sensor_type;location;lat;lon;timestamp;pressure;altitude;pressure_sealevel;temperature
86278;BMP280;76938;49.472;8.334;2024-03-08T00:01:20;100653.66;;;6.19
86278;BMP280;76938;49.472;8.334;2024-03-08T00:03:48;100660.25;;;6.21
86278;BMP280;76938;49.472;8.334;2024-03-08T00:06:16;100651.47;;;6.21
86278;BMP280;76938;49.472;8.334;2024-03-08T00:08:42;100649.56;;;6.21
86278;BMP280;76938;49.472;8.334;2024-03-08T00:11:10;100656.22;;;6.15
86278;BMP280;76938;49.472;8.334;2024-03-08T00:13:37;100644.94;;;6.10
86278;BMP280;76938;49.472;8.334;2024-03-08T00:16:05;100639.75;;;6.13
86278;BMP280;76938;49.472;8.334;2024-03-08T00:18:34;100644.78;;;6.06
86278;BMP280;76938;49.472;8.334;2024-03-08T00:20:59;100639.91;;;6.08
86278;BMP280;76938;49.472;8.334;2024-03-08T00:23:25;100639.44;;;6.06
86278;BMP280;76938;49.472;8.334;2024-03-08T00:25:50;100636.53;;;5.99
86278;BMP280;76938;49.472;8.334;2024-03-08T00:28:20;100634.44;;;6.05
86278;BMP280;76938;49.472;8.334;2024-03-08T00:30:45;100635.09;;;6.02
86278;BMP280;76938;49.472;8.334;2024-03-08T00:33:11;100636.22;;;5.92
86278;BMP280;76938;49.472;8.334;2024-03-08T00:35:36;100630.72;;;5.97
86278;BMP280;76938;49.472;8.334;2024-03-08T00:38:04;100638.44;;;5.90
86278;BMP280;76938;49.472;8.334;2024-03-08T00:40:29;100629.84;;;5.84
86278;BMP280;76938;49.472;8.334;2024-03-08T00:42:57;100624.34;;;5.81
86278;BMP280;76938;49.472;8.334;2024-03-08T00:45:23;100622.06;;;5.71
86278;BMP280;76938;49.472;8.334;2024-03-08T00:47:48;100613.44;;;5.74
86278;BMP280;76938;49.472;8.334;2024-03-08T00:50:13;100617.19;;;5.73
86278;BMP280;76938;49.472;8.334;2024-03-08T00:52:39;100612.66;;;5.73
86278;BMP280;76938;49.472;8.334;2024-03-08T00:55:07;100617.31;;;5.76
86278;BMP280;76938;49.472;8.334;2024-03-08T00:57:35;100617.97;;;5.73
86278;BMP280;76938;49.472;8.334;2024-03-08T01:00:05;100607.72;;;5.75
86278;BMP280;76938;49.472;8.334;2024-03-08T01:02:35;100615.50;;;5.59
86278;BMP280;76938;49.472;8.334;2024-03-08T01:05:01;100614.16;;;5.53
86278;BMP280;76938;49.472;8.334;2024-03-08T01:07:26;100604.09;;;5.50
86278;BMP280;76938;49.472;8.334;2024-03-08T01:09:53;100613.97;;;5.50
86278;BMP280;76938;49.472;8.334;2024-03-08T01:12:21;100608.03;;;5.44
86278;BMP280;76938;49.472;8.334;2024-03-08T01:14:47;100607.00;;;5.37
86278;BMP280;76938;49.472;8.334;2024-03-08T01:17:12;100607.91;;;5.32
86278;BMP280;76938;49.472;8.334;2024-03-08T01:19:38;100603.38;;;5.33
86278;BMP280;76938;49.472;8.334;2024-03-08T01:22:05;100593.81;;;5.32
86278;BMP280;76938;49.472;8.334;2024-03-08T01:24:31;100597.56;;;5.30
86278;BMP280;76938;49.472;8.334;2024-03-08T01:26:56;100593.66;;;5.28
86278;BMP280;76938;49.472;8.334;2024-03-08T01:29:24;100582.88;;;5.24
86278;BMP280;76938;49.472;8.334;2024-03-08T01:31:52;100582.25;;;5.10
86278;BMP280;76938;49.472;8.334;2024-03-08T01:34:18;100577.28;;;5.09
86278;BMP280;76938;49.472;8.334;2024-03-08T01:36:43;100573.16;;;5.11
86278;BMP280;76938;49.472;8.334;2024-03-08T01:39:08;100568.94;;;5.10
86278;BMP280;76938;49.472;8.334;2024-03-08T01:41:34;100572.72;;;5.01
86278;BMP280;76938;49.472;8.334;2024-03-08T01:44:01;100565.84;;;5.08
86278;BMP280;76938;49.472;8.334;2024-03-08T01:46:26;100563.47;;;5.07
86278;BMP280;76938;49.472;8.334;2024-03-08T01:48:55;100564.72;;;5.01
86278;BMP280;76938;49.472;8.334;2024-03-08T01:51:23;100558.63;;;5.00
86278;BMP280;76938;49.472;8.334;2024-03-08T01:53:48;100558.28;;;5.02
86278;BMP280;76938;49.472;8.334;2024-03-08T01:56:14;100561.75;;;5.02
86278;BMP280;76938;49.472;8.334;2024-03-08T01:58:43;100558.47;;;5.05
86278;BMP280;76938;49.472;8.334;2024-03-08T02:01:11;100548.78;;;4.92
86278;BMP280;76938;49.472;8.334;2024-03-08T02:03:36;100553.13;;;4.96
86278;BMP280;76938;49.472;8.334;2024-03-08T02:06:06;100545.78;;;4.85
86278;BMP280;76938;49.472;8.334;2024-03-08T02:08:35;100546.09;;;4.83
86278;BMP280;76938;49.472;8.334;2024-03-08T02:11:04;100542.19;;;4.81
86278;BMP280;76938;49.472;8.334;2024-03-08T02:13:29;100534.06;;;4.77
86278;BMP280;76938;49.472;8.334;2024-03-08T02:15:56;100544.72;;;4.77
86278;BMP280;76938;49.472;8.334;2024-03-08T02:18:22;100545.19;;;4.79
86278;BMP280;76938;49.472;8.334;2024-03-08T02:23:22;100537.06;;;4.67
86278;BMP280;76938;49.472;8.334;2024-03-08T02:25:48;100534.84;;;4.69
86278;BMP280;76938;49.472;8.334;2024-03-08T02:28:14;100531.44;;;4.60
86278;BMP280;76938;49.472;8.334;2024-03-08T02:30:40;100524.84;;;4.66
86278;BMP280;76938;49.472;8.334;2024-03-08T02:33:06;100522.31;;;4.70
86278;BMP280;76938;49.472;8.334;2024-03-08T02:35:32;100517.00;;;4.70
86278;BMP280;76938;49.472;8.334;2024-03-08T02:38:00;100517.78;;;4.61
86278;BMP280;76938;49.472;8.334;2024-03-08T02:40:25;100506.16;;;4.57
86278;BMP280;76938;49.472;8.334;2024-03-08T02:42:53;100507.63;;;4.55
86278;BMP280;76938;49.472;8.334;2024-03-08T02:45:21;100514.34;;;4.52
86278;BMP280;76938;49.472;8.334;2024-03-08T02:47:46;100508.84;;;4.57
86278;BMP280;76938;49.472;8.334;2024-03-08T02:50:14;100512.47;;;4.53
86278;BMP280;76938;49.472;8.334;2024-03-08T02:52:43;100508.72;;;4.54
86278;BMP280;76938;49.472;8.334;2024-03-08T02:55:11;100506.50;;;4.56
86278;BMP280;76938;49.472;8.334;2024-03-08T02:57:40;100507.91;;;4.62
86278;BMP280;76938;49.472;8.334;2024-03-08T03:00:06;100507.31;;;4.56
86278;BMP280;76938;49.472;8.334;2024-03-08T03:02:34;100504.03;;;4.51
86278;BMP280;76938;49.472;8.334;2024-03-08T03:04:59;100504.63;;;4.56
86278;BMP280;76938;49.472;8.334;2024-03-08T03:07:29;100503.06;;;4.55
86278;BMP280;76938;49.472;8.334;2024-03-08T03:09:55;100495.88;;;4.39
86278;BMP280;76938;49.472;8.334;2024-03-08T03:12:22;100492.75;;;4.37
86278;BMP280;76938;49.472;8.334;2024-03-08T03:14:48;100491.50;;;4.34
86278;BMP280;76938;49.472;8.334;2024-03-08T03:17:15;100492.16;;;4.31
86278;BMP280;76938;49.472;8.334;2024-03-08T03:19:43;100490.69;;;4.42
86278;BMP280;76938;49.472;8.334;2024-03-08T03:22:09;100494.50;;;4.32
86278;BMP280;76938;49.472;8.334;2024-03-08T03:24:35;100489.16;;;4.32
86278;BMP280;76938;49.472;8.334;2024-03-08T03:27:04;100488.81;;;4.25
86278;BMP280;76938;49.472;8.334;2024-03-08T03:29:37;100483.66;;;4.20
86278;BMP280;76938;49.472;8.334;2024-03-08T03:32:04;100494.94;;;4.17
86278;BMP280;76938;49.472;8.334;2024-03-08T03:34:29;100490.09;;;4.19
86278;BMP280;76938;49.472;8.334;2024-03-08T03:36:55;100488.69;;;4.13
86278;BMP280;76938;49.472;8.334;2024-03-08T03:39:21;100488.22;;;4.03
86278;BMP280;76938;49.472;8.334;2024-03-08T03:41:48;100484.91;;;3.97
86278;BMP280;76938;49.472;8.334;2024-03-08T03:44:17;100485.56;;;3.94
86278;BMP280;76938;49.472;8.334;2024-03-08T03:46:43;100488.22;;;3.94
86278;BMP280;76938;49.472;8.334;2024-03-08T03:49:16;100482.28;;;3.88
86278;BMP280;76938;49.472;8.334;2024-03-08T03:51:44;100482.75;;;3.90
86278;BMP280;76938;49.472;8.334;2024-03-08T03:54:10;100480.88;;;3.91
86278;BMP280;76938;49.472;8.334;2024-03-08T03:56:38;100475.84;;;4.07
86278;BMP280;76938;49.472;8.334;2024-03-08T03:59:06;100471.94;;;4.04
86278;BMP280;76938;49.472;8.334;2024-03-08T04:01:32;100476.63;;;4.07
86278;BMP280;76938;49.472;8.334;2024-03-08T04:04:03;100471.16;;;4.04
86278;BMP280;76938;49.472;8.334;2024-03-08T04:06:28;100472.25;;;4.03
86278;BMP280;76938;49.472;8.334;2024-03-08T04:08:53;100465.38;;;3.93
86278;BMP280;76938;49.472;8.334;2024-03-08T04:11:21;100471.47;;;3.85
86278;BMP280;76938;49.472;8.334;2024-03-08T04:13:46;100474.75;;;3.90
86278;BMP280;76938;49.472;8.334;2024-03-08T04:16:12;100465.06;;;3.94
86278;BMP280;76938;49.472;8.334;2024-03-08T04:18:37;100453.16;;;3.92
86278;BMP280;76938;49.472;8.334;2024-03-08T04:21:05;100464.41;;;3.80
86278;BMP280;76938;49.472;8.334;2024-03-08T04:23:34;100456.75;;;3.87
86278;BMP280;76938;49.472;8.334;2024-03-08T04:26:02;100457.53;;;3.88
86278;BMP280;76938;49.472;8.334;2024-03-08T04:28:29;100457.50;;;3.79
86278;BMP280;76938;49.472;8.334;2024-03-08T04:30:59;100457.81;;;3.78
86278;BMP280;76938;49.472;8.334;2024-03-08T04:33:26;100455.34;;;3.73
86278;BMP280;76938;49.472;8.334;2024-03-08T04:35:53;100461.44;;;3.73
86278;BMP280;76938;49.472;8.334;2024-03-08T04:38:21;100457.34;;;3.67
86278;BMP280;76938;49.472;8.334;2024-03-08T04:40:48;100448.59;;;3.66
86278;BMP280;76938;49.472;8.334;2024-03-08T04:43:17;100457.34;;;3.58
86278;BMP280;76938;49.472;8.334;2024-03-08T04:45:46;100453.75;;;3.54
86278;BMP280;76938;49.472;8.334;2024-03-08T04:48:13;100456.25;;;3.59
86278;BMP280;76938;49.472;8.334;2024-03-08T04:50:39;100448.72;;;3.53
86278;BMP280;76938;49.472;8.334;2024-03-08T04:53:05;100449.78;;;3.52
86278;BMP280;76938;49.472;8.334;2024-03-08T04:55:34;100456.19;;;3.51
86278;BMP280;76938;49.472;8.334;2024-03-08T04:57:59;100449.31;;;3.50
86278;BMP280;76938;49.472;8.334;2024-03-08T05:00:31;100446.22;;;3.48
86278;BMP280;76938;49.472;8.334;2024-03-08T05:02:56;100442.00;;;3.47
86278;BMP280;76938;49.472;8.334;2024-03-08T05:05:23;100442.63;;;3.44
86278;BMP280;76938;49.472;8.334;2024-03-08T05:07:52;100441.34;;;3.41
86278;BMP280;76938;49.472;8.334;2024-03-08T05:10:17;100444.91;;;3.36
86278;BMP280;76938;49.472;8.334;2024-03-08T05:12:47;100438.66;;;3.32
86278;BMP280;76938;49.472;8.334;2024-03-08T05:15:12;100433.84;;;3.43
86278;BMP280;76938;49.472;8.334;2024-03-08T05:17:40;100431.81;;;3.49
86278;BMP280;76938;49.472;8.334;2024-03-08T05:20:08;100438.69;;;3.50
86278;BMP280;76938;49.472;8.334;2024-03-08T05:22:37;100435.59;;;3.48
86278;BMP280;76938;49.472;8.334;2024-03-08T05:25:03;100433.72;;;3.65
86278;BMP280;76938;49.472;8.334;2024-03-08T05:27:28;100428.56;;;3.60
86278;BMP280;76938;49.472;8.334;2024-03-08T05:29:53;100427.25;;;3.49
86278;BMP280;76938;49.472;8.334;2024-03-08T05:32:19;100429.00;;;3.45
86278;BMP280;76938;49.472;8.334;2024-03-08T05:34:48;100424.94;;;3.48
86278;BMP280;76938;49.472;8.334;2024-03-08T05:37:19;100424.31;;;3.42
86278;BMP280;76938;49.472;8.334;2024-03-08T05:39:45;100422.91;;;3.45
86278;BMP280;76938;49.472;8.334;2024-03-08T05:42:13;100426.50;;;3.40
86278;BMP280;76938;49.472;8.334;2024-03-08T05:44:38;100429.16;;;3.40
86278;BMP280;76938;49.472;8.334;2024-03-08T05:47:05;100426.03;;;3.47
86278;BMP280;76938;49.472;8.334;2024-03-08T05:49:33;100420.84;;;3.50
86278;BMP280;76938;49.472;8.334;2024-03-08T05:52:00;100417.75;;;3.57
86278;BMP280;76938;49.472;8.334;2024-03-08T05:54:26;100413.06;;;3.54
86278;BMP280;76938;49.472;8.334;2024-03-08T05:56:52;100420.88;;;3.42
86278;BMP280;76938;49.472;8.334;2024-03-08T05:59:18;100417.84;;;3.34
86278;BMP280;76938;49.472;8.334;2024-03-08T06:01:45;100422.06;;;3.27
86278;BMP280;76938;49.472;8.334;2024-03-08T06:04:14;100417.22;;;3.29
86278;BMP280;76938;49.472;8.334;2024-03-08T06:06:39;100419.41;;;3.27
86278;BMP280;76938;49.472;8.334;2024-03-08T06:09:07;100413.16;;;3.31
86278;BMP280;76938;49.472;8.334;2024-03-08T06:11:36;100415.38;;;3.38
86278;BMP280;76938;49.472;8.334;2024-03-08T06:14:02;100415.56;;;3.42
86278;BMP280;76938;49.472;8.334;2024-03-08T06:16:28;100416.03;;;3.44
86278;BMP280;76938;49.472;8.334;2024-03-08T06:18:57;100410.72;;;3.52
86278;BMP280;76938;49.472;8.334;2024-03-08T06:21:27;100410.72;;;3.61
86278;BMP280;76938;49.472;8.334;2024-03-08T06:23:55;100412.94;;;3.67
86278;BMP280;76938;49.472;8.334;2024-03-08T06:26:22;100416.84;;;3.70
86278;BMP280;76938;49.472;8.334;2024-03-08T06:28:48;100411.50;;;3.79
86278;BMP280;76938;49.472;8.334;2024-03-08T06:31:14;100413.25;;;3.83
86278;BMP280;76938;49.472;8.334;2024-03-08T06:33:42;100413.88;;;3.89
86278;BMP280;76938;49.472;8.334;2024-03-08T06:36:09;100403.38;;;3.92
86278;BMP280;76938;49.472;8.334;2024-03-08T06:38:34;100410.38;;;3.97
86278;BMP280;76938;49.472;8.334;2024-03-08T06:41:02;100409.47;;;4.01
86278;BMP280;76938;49.472;8.334;2024-03-08T06:43:29;100414.16;;;4.05
86278;BMP280;76938;49.472;8.334;2024-03-08T06:45:59;100420.09;;;4.10
86278;BMP280;76938;49.472;8.334;2024-03-08T06:48:24;100413.19;;;4.18
86278;BMP280;76938;49.472;8.334;2024-03-08T06:50:52;100413.97;;;4.18
86278;BMP280;76938;49.472;8.334;2024-03-08T06:53:18;100411.59;;;4.25
86278;BMP280;76938;49.472;8.334;2024-03-08T06:55:46;100414.59;;;4.32
86278;BMP280;76938;49.472;8.334;2024-03-08T06:58:13;100416.41;;;4.41
86278;BMP280;76938;49.472;8.334;2024-03-08T07:00:39;100417.66;;;4.43
86278;BMP280;76938;49.472;8.334;2024-03-08T07:03:07;100411.41;;;4.48
86278;BMP280;76938;49.472;8.334;2024-03-08T07:05:33;100415.59;;;4.57
86278;BMP280;76938;49.472;8.334;2024-03-08T07:07:58;100410.88;;;4.63
86278;BMP280;76938;49.472;8.334;2024-03-08T07:10:25;100415.25;;;4.68
86278;BMP280;76938;49.472;8.334;2024-03-08T07:12:51;100411.03;;;4.67
86278;BMP280;76938;49.472;8.334;2024-03-08T07:15:18;100413.66;;;4.75
86278;BMP280;76938;49.472;8.334;2024-03-08T07:17:45;100415.38;;;4.80
86278;BMP280;76938;49.472;8.334;2024-03-08T07:20:15;100418.63;;;4.85
86278;BMP280;76938;49.472;8.334;2024-03-08T07:22:46;100414.25;;;4.81
86278;BMP280;76938;49.472;8.334;2024-03-08T07:25:18;100406.03;;;4.94
86278;BMP280;76938;49.472;8.334;2024-03-08T07:27:54;100410.72;;;4.97
86278;BMP280;76938;49.472;8.334;2024-03-08T07:30:25;100400.34;;;5.05
86278;BMP280;76938;49.472;8.334;2024-03-08T07:33:10;100401.63;;;5.07
86278;BMP280;76938;49.472;8.334;2024-03-08T07:35:41;100404.84;;;5.13
86278;BMP280;76938;49.472;8.334;2024-03-08T07:38:08;100402.16;;;5.21
86278;BMP280;76938;49.472;8.334;2024-03-08T07:40:38;100398.16;;;5.27
86278;BMP280;76938;49.472;8.334;2024-03-08T07:43:07;100400.97;;;5.31
86278;BMP280;76938;49.472;8.334;2024-03-08T07:45:32;100392.78;;;5.36
86278;BMP280;76938;49.472;8.334;2024-03-08T07:47:57;100397.25;;;5.44
86278;BMP280;76938;49.472;8.334;2024-03-08T07:50:25;100391.28;;;5.47
86278;BMP280;76938;49.472;8.334;2024-03-08T07:52:50;100387.94;;;5.50
86278;BMP280;76938;49.472;8.334;2024-03-08T07:55:16;100385.75;;;5.52
86278;BMP280;76938;49.472;8.334;2024-03-08T07:57:41;100382.66;;;5.62
86278;BMP280;76938;49.472;8.334;2024-03-08T08:00:10;100379.19;;;5.71
86278;BMP280;76938;49.472;8.334;2024-03-08T08:02:36;100382.06;;;5.78
86278;BMP280;76938;49.472;8.334;2024-03-08T08:05:02;100376.06;;;5.81
86278;BMP280;76938;49.472;8.334;2024-03-08T08:07:29;100379.00;;;5.88
86278;BMP280;76938;49.472;8.334;2024-03-08T08:09:59;100374.03;;;5.99
86278;BMP280;76938;49.472;8.334;2024-03-08T08:12:24;100374.38;;;5.97
86278;BMP280;76938;49.472;8.334;2024-03-08T08:14:54;100361.97;;;5.92
86278;BMP280;76938;49.472;8.334;2024-03-08T08:17:21;100365.69;;;6.00
86278;BMP280;76938;49.472;8.334;2024-03-08T08:19:47;100360.50;;;6.16
86278;BMP280;76938;49.472;8.334;2024-03-08T08:22:14;100354.59;;;6.22
86278;BMP280;76938;49.472;8.334;2024-03-08T08:24:41;100357.72;;;6.12
86278;BMP280;76938;49.472;8.334;2024-03-08T08:27:07;100365.06;;;6.15
86278;BMP280;76938;49.472;8.334;2024-03-08T08:29:34;100369.97;;;6.25
86278;BMP280;76938;49.472;8.334;2024-03-08T08:32:00;100363.41;;;6.35
86278;BMP280;76938;49.472;8.334;2024-03-08T08:34:25;100354.25;;;6.24
86278;BMP280;76938;49.472;8.334;2024-03-08T08:36:54;100357.06;;;6.28
86278;BMP280;76938;49.472;8.334;2024-03-08T08:39:19;100360.28;;;6.33
86278;BMP280;76938;49.472;8.334;2024-03-08T08:41:48;100351.50;;;6.33
86278;BMP280;76938;49.472;8.334;2024-03-08T08:44:13;100350.28;;;6.54
86278;BMP280;76938;49.472;8.334;2024-03-08T08:46:45;100351.84;;;6.68
86278;BMP280;76938;49.472;8.334;2024-03-08T08:49:12;100343.25;;;6.62
86278;BMP280;76938;49.472;8.334;2024-03-08T08:51:41;100340.59;;;6.62
86278;BMP280;76938;49.472;8.334;2024-03-08T08:54:09;100336.56;;;6.68
86278;BMP280;76938;49.472;8.334;2024-03-08T08:56:34;100326.31;;;6.82
86278;BMP280;76938;49.472;8.334;2024-03-08T08:59:02;100329.66;;;6.79
86278;BMP280;76938;49.472;8.334;2024-03-08T09:01:28;100323.31;;;6.84
86278;BMP280;76938;49.472;8.334;2024-03-08T09:03:54;100325.09;;;6.80
86278;BMP280;76938;49.472;8.334;2024-03-08T09:06:19;100322.75;;;6.78
86278;BMP280;76938;49.472;8.334;2024-03-08T09:08:47;100317.97;;;7.12
86278;BMP280;76938;49.472;8.334;2024-03-08T09:11:13;100314.41;;;6.80
86278;BMP280;76938;49.472;8.334;2024-03-08T09:13:38;100314.25;;;6.88
86278;BMP280;76938;49.472;8.334;2024-03-08T09:16:03;100313.69;;;6.95
86278;BMP280;76938;49.472;8.334;2024-03-08T09:18:37;100310.84;;;7.16
86278;BMP280;76938;49.472;8.334;2024-03-08T09:21:06;100316.88;;;7.13
86278;BMP280;76938;49.472;8.334;2024-03-08T09:23:37;100312.16;;;7.22
86278;BMP280;76938;49.472;8.334;2024-03-08T09:26:03;100317.16;;;7.23
86278;BMP280;76938;49.472;8.334;2024-03-08T09:28:29;100310.34;;;7.26
86278;BMP280;76938;49.472;8.334;2024-03-08T09:30:54;100309.50;;;7.10
86278;BMP280;76938;49.472;8.334;2024-03-08T09:33:22;100297.00;;;7.14
86278;BMP280;76938;49.472;8.334;2024-03-08T09:35:47;100300.78;;;7.25
86278;BMP280;76938;49.472;8.334;2024-03-08T09:38:14;100291.28;;;7.28
86278;BMP280;76938;49.472;8.334;2024-03-08T09:40:43;100293.84;;;7.52
86278;BMP280;76938;49.472;8.334;2024-03-08T09:43:12;100290.59;;;7.74
86278;BMP280;76938;49.472;8.334;2024-03-08T09:45:37;100289.88;;;7.62
86278;BMP280;76938;49.472;8.334;2024-03-08T09:48:12;100289.38;;;7.56
86278;BMP280;76938;49.472;8.334;2024-03-08T09:50:40;100284.22;;;7.35
86278;BMP280;76938;49.472;8.334;2024-03-08T09:53:06;100286.22;;;7.38
86278;BMP280;76938;49.472;8.334;2024-03-08T09:55:37;100277.22;;;7.31
86278;BMP280;76938;49.472;8.334;2024-03-08T09:58:08;100270.69;;;7.44
86278;BMP280;76938;49.472;8.334;2024-03-08T10:00:51;100285.41;;;8.13
86278;BMP280;76938;49.472;8.334;2024-03-08T10:03:17;100273.72;;;8.21
86278;BMP280;76938;49.472;8.334;2024-03-08T10:05:42;100281.25;;;7.68
86278;BMP280;76938;49.472;8.334;2024-03-08T10:08:10;100277.66;;;7.48
86278;BMP280;76938;49.472;8.334;2024-03-08T10:10:38;100275.16;;;7.68
86278;BMP280;76938;49.472;8.334;2024-03-08T10:13:07;100270.47;;;7.80
86278;BMP280;76938;49.472;8.334;2024-03-08T10:15:33;100273.66;;;7.70
86278;BMP280;76938;49.472;8.334;2024-03-08T10:17:58;100268.88;;;7.79
86278;BMP280;76938;49.472;8.334;2024-03-08T10:20:24;100268.56;;;7.65
86278;BMP280;76938;49.472;8.334;2024-03-08T10:22:50;100263.66;;;7.67
86278;BMP280;76938;49.472;8.334;2024-03-08T10:25:19;100256.63;;;7.63
86278;BMP280;76938;49.472;8.334;2024-03-08T10:27:44;100266.81;;;7.57
86278;BMP280;76938;49.472;8.334;2024-03-08T10:30:15;100254.88;;;7.39
86278;BMP280;76938;49.472;8.334;2024-03-08T10:32:41;100259.81;;;7.37
86278;BMP280;76938;49.472;8.334;2024-03-08T10:35:07;100265.00;;;7.61
86278;BMP280;76938;49.472;8.334;2024-03-08T10:37:53;100261.28;;;7.50
86278;BMP280;76938;49.472;8.334;2024-03-08T10:40:26;100256.19;;;7.60
86278;BMP280;76938;49.472;8.334;2024-03-08T10:42:59;100244.28;;;7.42
86278;BMP280;76938;49.472;8.334;2024-03-08T10:45:40;100249.84;;;7.65
86278;BMP280;76938;49.472;8.334;2024-03-08T10:48:29;100235.97;;;7.94
86278;BMP280;76938;49.472;8.334;2024-03-08T10:50:57;100239.28;;;7.88
86278;BMP280;76938;49.472;8.334;2024-03-08T10:53:29;100241.00;;;7.80
86278;BMP280;76938;49.472;8.334;2024-03-08T10:55:57;100239.03;;;7.77
86278;BMP280;76938;49.472;8.334;2024-03-08T10:58:25;100235.38;;;7.70
86278;BMP280;76938;49.472;8.334;2024-03-08T11:00:59;100241.53;;;7.86
86278;BMP280;76938;49.472;8.334;2024-03-08T11:06:05;100228.19;;;8.05
86278;BMP280;76938;49.472;8.334;2024-03-08T11:08:31;100221.72;;;8.25
86278;BMP280;76938;49.472;8.334;2024-03-08T11:10:59;100224.47;;;8.45
86278;BMP280;76938;49.472;8.334;2024-03-08T11:13:40;100229.22;;;8.16
86278;BMP280;76938;49.472;8.334;2024-03-08T11:16:12;100221.66;;;8.22
86278;BMP280;76938;49.472;8.334;2024-03-08T11:19:23;100221.53;;;8.34
86278;BMP280;76938;49.472;8.334;2024-03-08T11:21:59;100212.38;;;8.35
86278;BMP280;76938;49.472;8.334;2024-03-08T11:24:25;100209.94;;;8.11
86278;BMP280;76938;49.472;8.334;2024-03-08T11:26:56;100198.44;;;8.10
86278;BMP280;76938;49.472;8.334;2024-03-08T11:32:05;100204.22;;;8.28
86278;BMP280;76938;49.472;8.334;2024-03-08T11:34:34;100195.81;;;8.30
86278;BMP280;76938;49.472;8.334;2024-03-08T11:37:02;100190.34;;;8.42
86278;BMP280;76938;49.472;8.334;2024-03-08T11:39:30;100189.22;;;8.43
86278;BMP280;76938;49.472;8.334;2024-03-08T11:41:56;100185.78;;;8.65
86278;BMP280;76938;49.472;8.334;2024-03-08T11:44:26;100184.59;;;8.43
86278;BMP280;76938;49.472;8.334;2024-03-08T11:46:52;100180.31;;;8.58
86278;BMP280;76938;49.472;8.334;2024-03-08T11:49:20;100176.63;;;8.66
86278;BMP280;76938;49.472;8.334;2024-03-08T11:51:46;100174.41;;;8.72
86278;BMP280;76938;49.472;8.334;2024-03-08T11:54:12;100171.88;;;8.79
86278;BMP280;76938;49.472;8.334;2024-03-08T11:56:40;100174.69;;;8.67
86278;BMP280;76938;49.472;8.334;2024-03-08T11:59:11;100166.91;;;8.58
86278;BMP280;76938;49.472;8.334;2024-03-08T12:01:42;100155.22;;;8.70
86278;BMP280;76938;49.472;8.334;2024-03-08T12:04:13;100150.81;;;8.58
86278;BMP280;76938;49.472;8.334;2024-03-08T12:06:40;100143.66;;;8.66
86278;BMP280;76938;49.472;8.334;2024-03-08T12:09:10;100145.25;;;8.89
86278;BMP280;76938;49.472;8.334;2024-03-08T12:11:38;100148.59;;;8.83
86278;BMP280;76938;49.472;8.334;2024-03-08T12:14:04;100146.50;;;8.95
86278;BMP280;76938;49.472;8.334;2024-03-08T12:16:30;100133.63;;;9.05
86278;BMP280;76938;49.472;8.334;2024-03-08T12:18:56;100129.31;;;9.23
86278;BMP280;76938;49.472;8.334;2024-03-08T12:21:21;100127.56;;;9.08
86278;BMP280;76938;49.472;8.334;2024-03-08T12:24:08;100122.41;;;8.99
86278;BMP280;76938;49.472;8.334;2024-03-08T12:26:35;100122.59;;;9.10
86278;BMP280;76938;49.472;8.334;2024-03-08T12:29:26;100110.81;;;9.18
86278;BMP280;76938;49.472;8.334;2024-03-08T12:31:59;100108.03;;;9.34
86278;BMP280;76938;49.472;8.334;2024-03-08T12:34:26;100102.09;;;9.21
86278;BMP280;76938;49.472;8.334;2024-03-08T12:36:54;100102.66;;;9.34
86278;BMP280;76938;49.472;8.334;2024-03-08T12:39:22;100093.47;;;9.35
86278;BMP280;76938;49.472;8.334;2024-03-08T12:41:52;100096.06;;;9.05
86278;BMP280;76938;49.472;8.334;2024-03-08T12:44:22;100091.41;;;9.02
86278;BMP280;76938;49.472;8.334;2024-03-08T12:46:48;100085.72;;;9.29
86278;BMP280;76938;49.472;8.334;2024-03-08T12:49:16;100071.03;;;9.50
86278;BMP280;76938;49.472;8.334;2024-03-08T12:51:46;100074.34;;;9.66
86278;BMP280;76938;49.472;8.334;2024-03-08T12:54:12;100063.97;;;9.65
86278;BMP280;76938;49.472;8.334;2024-03-08T12:56:38;100061.56;;;9.59
86278;BMP280;76938;49.472;8.334;2024-03-08T12:59:06;100054.94;;;9.50
86278;BMP280;76938;49.472;8.334;2024-03-08T13:01:32;100058.34;;;9.47
86278;BMP280;76938;49.472;8.334;2024-03-08T13:03:58;100049.25;;;9.58
86278;BMP280;76938;49.472;8.334;2024-03-08T13:06:24;100041.19;;;9.55
86278;BMP280;76938;49.472;8.334;2024-03-08T13:08:52;100034.13;;;9.73
86278;BMP280;76938;49.472;8.334;2024-03-08T13:11:19;100026.00;;;9.66
86278;BMP280;76938;49.472;8.334;2024-03-08T13:13:44;100021.41;;;9.67
86278;BMP280;76938;49.472;8.334;2024-03-08T13:16:13;100018.56;;;9.89
86278;BMP280;76938;49.472;8.334;2024-03-08T13:18:42;100013.88;;;9.79
86278;BMP280;76938;49.472;8.334;2024-03-08T13:21:10;100004.41;;;9.92
86278;BMP280;76938;49.472;8.334;2024-03-08T13:23:41;100010.91;;;9.91
86278;BMP280;76938;49.472;8.334;2024-03-08T13:26:11;99996.34;;;9.92
86278;BMP280;76938;49.472;8.334;2024-03-08T13:28:46;100001.31;;;9.90
86278;BMP280;76938;49.472;8.334;2024-03-08T13:31:14;99996.94;;;10.12
86278;BMP280;76938;49.472;8.334;2024-03-08T13:33:40;99991.50;;;10.53
86278;BMP280;76938;49.472;8.334;2024-03-08T13:36:10;99987.69;;;10.54
86278;BMP280;76938;49.472;8.334;2024-03-08T13:38:49;99994.34;;;10.23
86278;BMP280;76938;49.472;8.334;2024-03-08T13:41:15;99985.69;;;10.40
86278;BMP280;76938;49.472;8.334;2024-03-08T13:43:45;99976.97;;;10.57
86278;BMP280;76938;49.472;8.334;2024-03-08T13:46:11;99980.00;;;10.52
86278;BMP280;76938;49.472;8.334;2024-03-08T13:48:41;99968.19;;;10.67
86278;BMP280;76938;49.472;8.334;2024-03-08T13:51:07;99968.53;;;10.59
86278;BMP280;76938;49.472;8.334;2024-03-08T13:53:42;99960.50;;;10.69
86278;BMP280;76938;49.472;8.334;2024-03-08T13:56:07;99955.59;;;10.82
86278;BMP280;76938;49.472;8.334;2024-03-08T13:58:36;99949.59;;;10.48
86278;BMP280;76938;49.472;8.334;2024-03-08T14:01:01;99944.59;;;10.47
86278;BMP280;76938;49.472;8.334;2024-03-08T14:03:28;99944.09;;;10.27
86278;BMP280;76938;49.472;8.334;2024-03-08T14:05:54;99935.56;;;10.73
86278;BMP280;76938;49.472;8.334;2024-03-08T14:08:23;99929.84;;;10.81
86278;BMP280;76938;49.472;8.334;2024-03-08T14:10:49;99927.13;;;10.78
86278;BMP280;76938;49.472;8.334;2024-03-08T14:13:16;99916.28;;;10.60
86278;BMP280;76938;49.472;8.334;2024-03-08T14:15:43;99915.19;;;10.72
86278;BMP280;76938;49.472;8.334;2024-03-08T14:18:11;99912.84;;;10.66
86278;BMP280;76938;49.472;8.334;2024-03-08T14:20:38;99905.59;;;10.74